Time;durP1;ratioP1;P1;durP2;ratioP2;P2;SDS_P1;SDS_P2;PMS_P1;PMS_P2;Temp;Humidity;BMP_temperature;BMP_pressure;BME280_temperature;BME280_humidity;BME280_pressure;Samples;Min_cycle;Max_cycle;Signal;HPM_P1;HPM_P2
2022/12/14 00:00:14;;;;;;;;;;;;;;;17.77;45.77;100909.19;4998827;28;1180;-47
2022/12/14 00:02:40;;;;;;;;;;;;;;;18.59;43.40;100896.22;4998637;28;1160;-48
2022/12/14 00:05:05;;;;;;;;;;;;;;;17.41;45.62;100917.47;4998786;28;1113;-47
2022/12/14 00:07:31;;;;;;;;;;;;;;;18.00;45.04;100923.47;4998134;28;1089;-50
2022/12/14 00:09:56;;;;;;;;;;;;;;;17.50;45.42;100936.16;4998258;28;1089;-47
2022/12/14 00:12:22;;;;;;;;;;;;;;;17.38;46.04;100956.50;4997945;28;1910;-45
2022/12/14 00:14:47;;;;;;;;;;;;;;;18.65;43.36;100950.19;4998215;28;1224;-47
2022/12/14 00:17:12;;;;;;;;;;;;;;;17.28;45.79;100945.53;4998162;28;1212;-50
2022/12/14 00:19:38;;;;;;;;;;;;;;;17.37;45.88;100960.34;4991140;28;979;-47
2022/12/14 00:22:03;;;;;;;;;;;;;;;17.66;45.36;100945.25;4991351;28;1208;-48
2022/12/14 00:24:29;;;;;;;;;;;;;;;17.64;45.82;100959.25;4998199;28;1085;-46
2022/12/14 00:26:55;;;;;;;;;;;;;;;19.43;41.47;100954.09;4998121;28;1180;-47
2022/12/14 00:29:20;;;;;;;;;;;;;;;17.78;45.04;100981.50;4984595;28;1109;-47
2022/12/14 00:31:46;;;;;;;;;;;;;;;17.08;45.87;100973.78;4997549;28;1914;-48
2022/12/14 00:34:11;;;;;;;;;;;;;;;16.98;45.79;100966.34;4998055;28;1133;-45
2022/12/14 00:36:36;;;;;;;;;;;;;;;17.75;45.05;100951.81;4998281;28;1265;-47
2022/12/14 00:39:02;;;;;;;;;;;;;;;16.97;45.92;100951.00;4997838;28;1200;-47
2022/12/14 00:41:28;;;;;;;;;;;;;;;18.29;44.38;100953.91;4997647;28;1161;-48
2022/12/14 00:43:53;;;;;;;;;;;;;;;17.39;45.42;100952.66;4997494;28;968;-46
2022/12/14 00:46:19;;;;;;;;;;;;;;;18.24;44.35;100955.84;4998042;28;1121;-48
2022/12/14 00:48:44;;;;;;;;;;;;;;;18.61;43.08;100971.16;4997555;28;1204;-45
2022/12/14 00:51:10;;;;;;;;;;;;;;;17.42;45.32;100971.34;4997703;28;1968;-48
2022/12/14 00:53:35;;;;;;;;;;;;;;;18.71;43.23;100968.34;4997883;28;1136;-45
2022/12/14 00:56:05;;;;;;;;;;;;;;;17.87;44.67;100973.53;4997555;28;886;-46
2022/12/14 00:58:30;;;;;;;;;;;;;;;17.20;45.41;100973.53;4997700;28;1175;-46
2022/12/14 01:01:00;;;;;;;;;;;;;;;17.95;44.83;100978.50;4997691;28;1224;-45
2022/12/14 01:03:25;;;;;;;;;;;;;;;17.43;45.34;100981.25;4979614;28;1117;-48
2022/12/14 01:05:51;;;;;;;;;;;;;;;17.97;44.79;100987.31;4997688;28;1200;-46
2022/12/14 01:08:16;;;;;;;;;;;;;;;18.74;42.48;100998.06;4997403;28;1002;-49
2022/12/14 01:10:42;;;;;;;;;;;;;;;17.33;45.47;100986.72;4997206;28;1987;-45
2022/12/14 01:13:08;;;;;;;;;;;;;;;18.32;43.97;100998.50;4996947;28;1128;-47
2022/12/14 01:15:34;;;;;;;;;;;;;;;17.88;44.57;101013.69;4974158;28;1562;-48
2022/12/14 01:18:00;;;;;;;;;;;;;;;17.19;45.08;101007.59;4997387;28;1037;-49
2022/12/14 01:20:25;;;;;;;;;;;;;;;17.19;45.75;101008.44;4997365;28;970;-49
2022/12/14 01:22:54;;;;;;;;;;;;;;;17.41;45.22;101008.19;4996796;28;1093;-49
2022/12/14 01:25:20;;;;;;;;;;;;;;;17.41;45.92;101001.88;4997262;28;1168;-48
2022/12/14 01:27:45;;;;;;;;;;;;;;;19.06;42.12;101001.53;4997136;28;1274;-51
2022/12/14 01:30:12;;;;;;;;;;;;;;;17.42;45.41;101004.34;4987436;28;1156;-52
2022/12/14 01:32:37;;;;;;;;;;;;;;;16.91;45.71;101007.00;4993984;28;1910;-49
2022/12/14 01:35:03;;;;;;;;;;;;;;;17.93;44.41;101011.78;4997143;28;1216;-49
2022/12/14 01:37:28;;;;;;;;;;;;;;;17.02;45.85;101008.66;4997061;28;1203;-50
2022/12/14 01:39:54;;;;;;;;;;;;;;;18.61;43.35;100995.94;4997154;28;1073;-51
2022/12/14 01:42:19;;;;;;;;;;;;;;;17.58;44.84;100998.84;4997290;28;1196;-50
2022/12/14 01:44:52;;;;;;;;;;;;;;;17.00;45.74;100999.88;4996406;28;919;-50
2022/12/14 01:47:19;;;;;;;;;;;;;;;18.18;43.94;101007.34;4996909;28;1208;-48
2022/12/14 01:49:47;;;;;;;;;;;;;;;17.04;45.68;100995.50;4979754;28;1137;-51
2022/12/14 01:52:15;;;;;;;;;;;;;;;18.93;42.49;100991.97;4997066;28;1914;-52
2022/12/14 01:54:42;;;;;;;;;;;;;;;18.34;43.27;100994.38;4979020;28;1114;-52
2022/12/14 01:57:09;;;;;;;;;;;;;;;17.25;45.35;100995.50;4994802;28;1206;-51
2022/12/14 01:59:35;;;;;;;;;;;;;;;16.89;45.39;100985.28;4997125;28;1124;-51
2022/12/14 02:02:01;;;;;;;;;;;;;;;17.94;44.28;100990.63;4996404;28;1211;-50
2022/12/14 02:04:26;;;;;;;;;;;;;;;17.30;45.73;100979.03;4978868;28;1176;-54
2022/12/14 02:06:52;;;;;;;;;;;;;;;19.25;41.70;100974.94;4996753;28;1196;-50
2022/12/14 02:09:19;;;;;;;;;;;;;;;18.00;43.92;100974.91;4996923;28;1189;-52
2022/12/14 02:11:51;;;;;;;;;;;;;;;17.20;45.26;100988.09;4979429;28;1906;-48
2022/12/14 02:14:16;;;;;;;;;;;;;;;18.38;43.55;100987.19;4996442;28;1141;-53
2022/12/14 02:16:42;;;;;;;;;;;;;;;17.18;45.55;100983.97;4997030;28;1141;-48
2022/12/14 02:19:07;;;;;;;;;;;;;;;16.95;45.09;100974.31;4996502;28;1161;-46
2022/12/14 02:21:41;;;;;;;;;;;;;;;18.21;43.73;100975.69;4996783;28;1195;-51
2022/12/14 02:24:07;;;;;;;;;;;;;;;17.07;45.66;100967.47;4996133;28;1227;-50
2022/12/14 02:26:44;;;;;;;;;;;;;;;17.00;46.00;100971.56;4996623;28;1157;-51
2022/12/14 02:29:29;;;;;;;;;;;;;;;17.22;45.82;100968.59;4996834;28;1168;-47
2022/12/14 02:32:01;;;;;;;;;;;;;;;17.53;45.45;100971.34;4996664;28;1989;-48
2022/12/14 02:34:26;;;;;;;;;;;;;;;18.36;43.16;100953.63;4996232;28;1169;-50
2022/12/14 02:36:56;;;;;;;;;;;;;;;17.14;45.77;100958.13;4996066;28;1223;-49
2022/12/14 02:39:40;;;;;;;;;;;;;;;18.81;42.78;100961.94;4979295;28;1121;-47
2022/12/14 02:42:07;;;;;;;;;;;;;;;17.65;44.74;100973.84;4996489;28;1128;-47
2022/12/14 02:44:51;;;;;;;;;;;;;;;17.40;45.76;100969.97;4981392;28;1192;-49
2022/12/14 02:47:21;;;;;;;;;;;;;;;18.20;43.66;100958.38;5000046;28;1156;-49
2022/12/14 02:49:59;;;;;;;;;;;;;;;17.15;45.34;100974.34;4983135;28;1105;-48
2022/12/14 02:52:44;;;;;;;;;;;;;;;17.23;45.64;100964.75;4999681;28;1906;-50
2022/12/14 02:55:15;;;;;;;;;;;;;;;17.54;45.09;100964.75;4989081;28;1134;-47
2022/12/14 02:57:43;;;;;;;;;;;;;;;18.12;44.31;100975.44;4982754;28;1156;-51
2022/12/14 03:00:09;;;;;;;;;;;;;;;19.22;41.54;100977.41;4982685;28;1228;-49
2022/12/14 03:02:35;;;;;;;;;;;;;;;17.77;44.52;100980.69;4999463;28;1145;-54
2022/12/14 03:05:01;;;;;;;;;;;;;;;17.18;45.20;100992.22;4982393;28;1150;-50
2022/12/14 03:07:35;;;;;;;;;;;;;;;18.52;43.34;100997.59;4999559;28;1216;-52
2022/12/14 03:10:19;;;;;;;;;;;;;;;17.39;45.48;100995.81;4982290;28;1157;-52
2022/12/14 03:12:46;;;;;;;;;;;;;;;19.56;40.81;100987.63;5000003;28;1981;-55
2022/12/14 03:15:12;;;;;;;;;;;;;;;18.49;42.87;100995.44;4982067;28;1216;-52
2022/12/14 03:17:37;;;;;;;;;;;;;;;17.50;44.94;101002.16;4982113;28;1074;-52
2022/12/14 03:20:10;;;;;;;;;;;;;;;17.09;45.49;101003.72;4981731;28;1173;-54
2022/12/14 03:22:37;;;;;;;;;;;;;;;17.69;44.47;100999.69;4999343;28;1121;-53
2022/12/14 03:25:13;;;;;;;;;;;;;;;16.99;45.33;101003.72;4981918;28;1161;-50
2022/12/14 03:27:46;;;;;;;;;;;;;;;18.74;42.65;100992.53;4999278;28;1109;-48
2022/12/14 03:30:12;;;;;;;;;;;;;;;17.33;45.29;101007.91;4999254;28;1191;-52
2022/12/14 03:32:39;;;;;;;;;;;;;;;17.31;45.20;100999.94;4999076;28;1988;-51
2022/12/14 03:35:13;;;;;;;;;;;;;;;17.55;44.89;100996.66;4982096;28;1283;-45
2022/12/14 03:37:39;;;;;;;;;;;;;;;17.61;45.28;100990.88;4998868;28;1185;-45
2022/12/14 03:40:06;;;;;;;;;;;;;;;19.15;41.49;100986.84;4998954;28;1172;-49
2022/12/14 03:42:36;;;;;;;;;;;;;;;17.58;44.77;100994.16;4999493;28;1188;-49
2022/12/14 03:45:04;;;;;;;;;;;;;;;17.65;44.88;100993.91;4998877;28;909;-46
2022/12/14 03:47:30;;;;;;;;;;;;;;;17.87;44.33;100987.28;4998312;28;1101;-45
2022/12/14 03:49:56;;;;;;;;;;;;;;;17.18;45.14;100982.06;4998817;28;1136;-47
2022/12/14 03:52:24;;;;;;;;;;;;;;;18.85;42.11;100975.97;4999237;28;1906;-48
2022/12/14 03:54:53;;;;;;;;;;;;;;;17.42;44.85;100979.59;4998443;28;1078;-47
2022/12/14 03:57:28;;;;;;;;;;;;;;;17.35;45.41;100986.47;4998648;28;1152;-47
2022/12/14 03:59:59;;;;;;;;;;;;;;;17.76;44.65;100983.72;4998605;28;1168;-49
2022/12/14 04:02:26;;;;;;;;;;;;;;;17.29;45.88;100982.88;4998410;28;1093;-49
2022/12/14 04:04:55;;;;;;;;;;;;;;;19.17;41.43;100971.94;4998886;28;1192;-45
2022/12/14 04:07:27;;;;;;;;;;;;;;;17.50;44.76;100978.25;4998211;28;1109;-48
2022/12/14 04:09:59;;;;;;;;;;;;;;;18.53;43.06;100975.28;4998424;28;930;-51
2022/12/14 04:20:50;;;;;;;;;;;;;;;17.14;45.23;100980.13;4983215;28;1192;-46
2022/12/14 04:26:08;;;;;;;;;;;;;;;17.24;45.23;100989.22;4983832;28;1109;-48
2022/12/14 04:31:22;;;;;;;;;;;;;;;18.03;43.75;100988.94;4980362;28;1902;-53
2022/12/14 04:33:55;;;;;;;;;;;;;;;17.16;45.12;100991.66;4996837;28;1230;-52
2022/12/14 04:36:27;;;;;;;;;;;;;;;18.53;42.82;100994.56;4971349;28;1209;-52
2022/12/14 04:38:55;;;;;;;;;;;;;;;17.23;45.33;100986.72;4980659;28;1172;-51
2022/12/14 04:41:22;;;;;;;;;;;;;;;18.23;43.70;100981.72;4977704;28;1223;-51
2022/12/14 04:43:47;;;;;;;;;;;;;;;18.20;43.36;100969.38;4993044;28;1186;-49
2022/12/14 04:46:13;;;;;;;;;;;;;;;17.12;45.17;100972.16;4993267;28;1356;-50
2022/12/14 04:48:43;;;;;;;;;;;;;;;17.34;45.19;100977.41;4993172;28;1012;-51
2022/12/14 04:51:32;;;;;;;;;;;;;;;17.70;44.51;100974.66;4972862;28;1963;-51
2022/12/14 04:53:59;;;;;;;;;;;;;;;18.04;44.21;100976.00;4977849;28;1455;-45
2022/12/14 04:56:35;;;;;;;;;;;;;;;18.96;41.72;100977.59;4972845;28;1533;-54
2022/12/14 04:59:01;;;;;;;;;;;;;;;17.48;44.54;100988.69;4975866;28;940;-51
2022/12/14 05:01:29;;;;;;;;;;;;;;;16.97;45.21;100970.22;4996855;28;1188;-47
2022/12/14 05:03:55;;;;;;;;;;;;;;;17.06;45.28;100970.50;4997252;28;968;-48
2022/12/14 05:06:25;;;;;;;;;;;;;;;17.28;44.93;100962.00;4996679;28;1362;-48
2022/12/14 05:08:55;;;;;;;;;;;;;;;18.15;43.69;100963.88;4977803;28;2222;-47
2022/12/14 05:11:28;;;;;;;;;;;;;;;19.15;41.29;100963.94;4993514;28;2045;-46
2022/12/14 05:13:53;;;;;;;;;;;;;;;17.60;44.42;100960.94;4979579;28;1803;-47
2022/12/14 05:16:19;;;;;;;;;;;;;;;18.19;43.56;100964.13;4995788;28;2355;-45
2022/12/14 05:18:45;;;;;;;;;;;;;;;17.98;43.74;100966.94;4979125;28;1953;-54
2022/12/14 05:23:55;;;;;;;;;;;;;;;18.53;42.91;100957.97;4996681;28;2063;-58
2022/12/14 05:26:20;;;;;;;;;;;;;;;17.38;44.72;100956.50;4996545;28;1145;-57
2022/12/14 05:28:45;;;;;;;;;;;;;;;16.90;44.98;100966.88;4996637;28;1121;-54
2022/12/14 05:31:11;;;;;;;;;;;;;;;17.77;44.32;100964.19;4996099;28;1902;-49
2022/12/14 05:33:36;;;;;;;;;;;;;;;17.15;45.30;100976.28;4964211;28;1032;-50
2022/12/14 05:36:02;;;;;;;;;;;;;;;17.43;44.96;100974.91;4976474;28;1220;-47
2022/12/14 05:38:27;;;;;;;;;;;;;;;18.08;43.42;100966.09;4976682;28;1260;-48
2022/12/14 05:40:52;;;;;;;;;;;;;;;17.05;45.22;100975.16;4990526;28;1184;-51
2022/12/14 05:43:18;;;;;;;;;;;;;;;17.39;45.23;100976.56;4996301;28;1176;-52
2022/12/14 05:45:43;;;;;;;;;;;;;;;17.56;44.35;100974.38;4995898;28;917;-50
2022/12/14 05:48:09;;;;;;;;;;;;;;;17.46;45.09;100974.41;4983713;28;1113;-49
2022/12/14 05:50:34;;;;;;;;;;;;;;;19.27;40.89;100969.94;4995790;28;1141;-53
2022/12/14 05:53:00;;;;;;;;;;;;;;;17.63;44.38;100979.63;4996405;28;1987;-47
2022/12/14 05:55:26;;;;;;;;;;;;;;;17.04;45.02;100981.75;4996310;28;1864;-55
2022/12/14 05:57:51;;;;;;;;;;;;;;;17.75;44.06;100991.16;4995978;28;992;-54
2022/12/14 06:00:17;;;;;;;;;;;;;;;16.99;44.99;100981.75;4995581;28;1140;-51
2022/12/14 06:02:42;;;;;;;;;;;;;;;18.94;41.65;100979.81;4995464;28;1434;-54
2022/12/14 06:05:08;;;;;;;;;;;;;;;17.69;44.19;100977.69;4978499;28;1256;-53
2022/12/14 06:07:33;;;;;;;;;;;;;;;17.72;44.25;100994.44;4996051;28;1258;-52
2022/12/14 06:09:59;;;;;;;;;;;;;;;18.61;41.97;100995.94;4995582;28;1279;-51
2022/12/14 06:12:25;;;;;;;;;;;;;;;17.37;44.47;100996.09;4995725;28;1973;-54
2022/12/14 06:14:50;;;;;;;;;;;;;;;17.06;44.52;100998.78;4996106;28;1304;-53
2022/12/14 06:17:15;;;;;;;;;;;;;;;18.42;42.72;100995.72;4996040;28;1244;-54
2022/12/14 06:19:42;;;;;;;;;;;;;;;17.18;44.91;100997.72;4998691;28;1137;-54
2022/12/14 06:22:07;;;;;;;;;;;;;;;18.52;42.65;101000.38;4998917;28;1268;-53
2022/12/14 06:24:32;;;;;;;;;;;;;;;18.01;43.27;100995.84;4990955;28;2266;-52
2022/12/14 06:26:58;;;;;;;;;;;;;;;17.76;44.18;100991.97;4979984;28;1252;-52
2022/12/14 06:29:23;;;;;;;;;;;;;;;18.04;43.34;100996.09;4979919;28;1216;-53
2022/12/14 06:31:49;;;;;;;;;;;;;;;17.43;44.63;100995.00;4979965;28;1903;-54
2022/12/14 06:34:14;;;;;;;;;;;;;;;17.03;45.62;100999.34;4982138;28;1209;-51
2022/12/14 06:36:40;;;;;;;;;;;;;;;16.76;46.03;100999.53;4979855;28;1209;-53
2022/12/14 06:39:07;;;;;;;;;;;;;;;16.59;46.49;101005.19;4980123;28;1271;-50
2022/12/14 06:41:32;;;;;;;;;;;;;;;16.42;46.64;101008.13;4980169;28;1252;-54
2022/12/14 06:44:03;;;;;;;;;;;;;;;16.24;47.01;101002.03;4979532;28;1193;-54
2022/12/14 06:46:29;;;;;;;;;;;;;;;16.07;47.45;101009.59;4981384;28;1288;-54
2022/12/14 06:48:54;;;;;;;;;;;;;;;15.89;47.63;101013.56;4986258;28;1256;-53
2022/12/14 06:51:20;;;;;;;;;;;;;;;15.78;48.15;101011.81;4998855;28;1902;-54
2022/12/14 06:53:48;;;;;;;;;;;;;;;15.67;48.27;101016.38;4996617;28;2445;-53
2022/12/14 06:56:14;;;;;;;;;;;;;;;15.51;48.51;101010.75;4988762;28;1110;-55
2022/12/14 06:58:40;;;;;;;;;;;;;;;15.40;48.81;101014.50;4998828;28;1248;-53
2022/12/14 07:01:12;;;;;;;;;;;;;;;15.32;48.88;101004.84;4994776;28;1273;-53
2022/12/14 07:03:38;;;;;;;;;;;;;;;16.91;45.08;101017.97;4996901;28;1213;-53
2022/12/14 07:06:04;;;;;;;;;;;;;;;16.20;46.57;101013.78;4999605;28;1186;-54
2022/12/14 07:08:30;;;;;;;;;;;;;;;15.72;47.87;101022.75;4983630;28;1161;-49
2022/12/14 07:10:55;;;;;;;;;;;;;;;15.46;48.26;101008.00;4980726;28;1902;-51
2022/12/14 07:13:21;;;;;;;;;;;;;;;15.33;48.59;101003.78;4979596;28;1248;-51
2022/12/14 07:15:50;;;;;;;;;;;;;;;16.18;46.94;101013.22;4979564;28;1256;-52
2022/12/14 07:18:15;;;;;;;;;;;;;;;17.15;44.28;100999.06;4987237;28;1137;-54
2022/12/14 07:20:41;;;;;;;;;;;;;;;16.11;46.85;100998.91;4999210;28;1137;-54
2022/12/14 07:23:06;;;;;;;;;;;;;;;15.68;47.92;101002.44;4998700;28;923;-53
2022/12/14 07:25:32;;;;;;;;;;;;;;;15.47;48.43;100995.13;4987072;28;2608;-52
2022/12/14 07:27:57;;;;;;;;;;;;;;;16.19;46.89;100995.69;4993146;28;1198;-53
2022/12/14 07:30:22;;;;;;;;;;;;;;;17.19;44.24;100996.63;4988078;28;1180;-48
2022/12/14 07:32:48;;;;;;;;;;;;;;;16.19;46.34;100990.19;4999068;28;1911;-48
2022/12/14 07:35:13;;;;;;;;;;;;;;;15.70;47.91;100999.44;4998460;28;899;-47
2022/12/14 07:37:39;;;;;;;;;;;;;;;15.50;48.39;101005.56;4998644;28;1105;-51
2022/12/14 07:40:04;;;;;;;;;;;;;;;16.20;46.50;101003.66;4998731;28;1250;-50
2022/12/14 07:42:30;;;;;;;;;;;;;;;17.41;43.45;101005.44;4999241;28;1128;-55
2022/12/14 07:45:00;;;;;;;;;;;;;;;16.32;46.14;101011.66;4980617;28;1161;-51
2022/12/14 07:47:28;;;;;;;;;;;;;;;15.83;47.47;101018.19;4998185;28;942;-53
2022/12/14 07:49:53;;;;;;;;;;;;;;;15.56;48.17;101016.31;4996364;28;1184;-52
2022/12/14 07:52:19;;;;;;;;;;;;;;;15.47;48.41;101008.81;4979085;28;1969;-46
2022/12/14 07:54:44;;;;;;;;;;;;;;;17.07;44.49;101013.38;4993048;28;1868;-48
2022/12/14 07:57:10;;;;;;;;;;;;;;;16.32;46.35;101011.66;4998160;28;1215;-51
2022/12/14 07:59:35;;;;;;;;;;;;;;;15.78;47.59;101020.88;4995503;28;1046;-54
2022/12/14 08:02:01;;;;;;;;;;;;;;;15.55;48.31;101013.81;4998608;28;1112;-55
2022/12/14 08:04:26;;;;;;;;;;;;;;;15.78;47.86;101011.81;4998392;28;1156;-54
2022/12/14 08:06:52;;;;;;;;;;;;;;;17.28;43.96;101017.78;4997844;28;1184;-58
2022/12/14 08:09:18;;;;;;;;;;;;;;;16.38;46.49;101012.50;4998550;28;1188;-56
2022/12/14 08:11:44;;;;;;;;;;;;;;;15.89;47.66;101008.09;4997667;28;1976;-52
2022/12/14 08:14:15;;;;;;;;;;;;;;;15.55;48.58;101002.84;4998023;28;1160;-54
2022/12/14 08:16:41;;;;;;;;;;;;;;;15.88;47.70;101000.97;4997801;28;1145;-56
2022/12/14 08:19:06;;;;;;;;;;;;;;;17.07;44.66;100994.94;4997808;28;1414;-56
2022/12/14 08:21:32;;;;;;;;;;;;;;;16.04;47.02;100994.47;4998279;28;1128;-56
2022/12/14 08:23:58;;;;;;;;;;;;;;;15.65;48.21;100997.44;4997534;28;1886;-55
2022/12/14 08:26:24;;;;;;;;;;;;;;;15.38;48.64;100992.84;4983955;28;1160;-52
2022/12/14 08:28:49;;;;;;;;;;;;;;;16.27;46.68;100995.19;4997767;28;1140;-53
2022/12/14 08:31:15;;;;;;;;;;;;;;;17.41;43.99;100993.63;4983720;28;1898;-55
2022/12/14 08:33:41;;;;;;;;;;;;;;;16.28;46.30;100988.56;4997847;28;1125;-56
2022/12/14 08:36:11;;;;;;;;;;;;;;;15.81;47.57;100979.25;4997035;28;950;-53
2022/12/14 08:38:36;;;;;;;;;;;;;;;15.54;48.14;100990.25;4959076;28;1129;-56
2022/12/14 08:41:05;;;;;;;;;;;;;;;15.77;47.77;100999.19;4958462;28;1145;-51
2022/12/14 08:43:31;;;;;;;;;;;;;;;17.25;44.36;101001.00;4939972;29;1141;-55
2022/12/14 08:45:56;;;;;;;;;;;;;;;16.26;46.50;100990.78;4947200;29;1278;-55
2022/12/14 08:48:22;;;;;;;;;;;;;;;15.80;47.40;100987.75;4948588;29;1078;-54
2022/12/14 08:50:48;;;;;;;;;;;;;;;15.51;48.15;100980.63;4955208;29;1970;-54
2022/12/14 08:53:13;;;;;;;;;;;;;;;16.67;45.57;100988.22;4958438;29;1145;-55
2022/12/14 08:55:39;;;;;;;;;;;;;;;17.03;44.27;100990.28;4958447;29;2588;-51
2022/12/14 08:58:04;;;;;;;;;;;;;;;16.13;46.64;100996.72;4957812;29;1201;-56
2022/12/14 09:00:29;;;;;;;;;;;;;;;15.74;47.74;100995.88;4945754;29;1141;-55
2022/12/14 09:02:55;;;;;;;;;;;;;;;16.38;46.34;101002.38;4957787;29;1193;-53
2022/12/14 09:05:20;;;;;;;;;;;;;;;16.81;45.00;100995.94;4958264;29;1200;-56
2022/12/14 09:07:46;;;;;;;;;;;;;;;16.04;46.88;100988.16;4958384;29;1141;-56
2022/12/14 09:10:11;;;;;;;;;;;;;;;15.72;47.56;100987.13;4958128;28;1117;-48
2022/12/14 09:12:37;;;;;;;;;;;;;;;15.55;48.19;100989.16;4944771;28;1910;-54
2022/12/14 09:15:02;;;;;;;;;;;;;;;16.89;44.95;101004.50;4958260;28;1129;-53
2022/12/14 09:17:28;;;;;;;;;;;;;;;16.54;45.53;100995.03;4958361;29;1129;-54
2022/12/14 09:19:53;;;;;;;;;;;;;;;15.94;47.05;100994.41;4958372;28;1142;-53
2022/12/14 09:22:19;;;;;;;;;;;;;;;15.62;48.02;100991.69;4958366;28;1205;-55
2022/12/14 09:24:44;;;;;;;;;;;;;;;15.91;47.25;100989.47;4949455;29;2380;-53
2022/12/14 09:27:10;;;;;;;;;;;;;;;17.22;44.01;100985.06;4958053;28;1109;-54
2022/12/14 09:29:35;;;;;;;;;;;;;;;16.17;46.47;100986.88;4958062;28;1141;-52
2022/12/14 09:32:00;;;;;;;;;;;;;;;15.77;47.53;100977.25;4958244;28;1976;-53
2022/12/14 09:34:26;;;;;;;;;;;;;;;15.95;47.41;100973.28;4956326;28;1181;-54
2022/12/14 09:36:51;;;;;;;;;;;;;;;17.18;44.28;100968.31;4957480;28;1177;-46
2022/12/14 09:39:17;;;;;;;;;;;;;;;16.16;46.50;100972.34;4987996;28;1209;-55
2022/12/14 09:41:48;;;;;;;;;;;;;;;15.77;47.73;100969.03;4994834;28;1184;-54
2022/12/14 09:44:20;;;;;;;;;;;;;;;15.99;47.03;100968.94;4977758;28;1137;-52
2022/12/14 09:46:46;;;;;;;;;;;;;;;17.21;43.92;100962.28;4993739;28;1042;-51
2022/12/14 09:49:25;;;;;;;;;;;;;;;16.19;46.36;100957.28;4994743;28;850;-52
2022/12/14 09:51:50;;;;;;;;;;;;;;;15.76;47.70;100948.19;4977667;28;1902;-53
2022/12/14 09:54:16;;;;;;;;;;;;;;;15.55;47.94;100945.31;4993809;28;1824;-54
2022/12/14 09:56:41;;;;;;;;;;;;;;;16.13;46.73;100941.84;4995270;28;1140;-55
2022/12/14 09:59:08;;;;;;;;;;;;;;;17.36;43.94;100930.41;4976425;28;984;-55
2022/12/14 10:01:33;;;;;;;;;;;;;;;16.25;46.35;100934.25;4977635;28;1133;-55
2022/12/14 10:04:11;;;;;;;;;;;;;;;15.83;47.21;100938.66;4994553;28;885;-53
2022/12/14 10:06:45;;;;;;;;;;;;;;;15.55;48.15;100932.41;4995095;28;1180;-57
2022/12/14 10:09:13;;;;;;;;;;;;;;;15.65;47.68;100926.19;4994966;28;1208;-52
2022/12/14 10:11:42;;;;;;;;;;;;;;;17.23;44.02;100926.28;4977192;28;1906;-53
2022/12/14 10:14:07;;;;;;;;;;;;;;;16.30;46.06;100936.16;4994756;28;1197;-54
2022/12/14 10:16:33;;;;;;;;;;;;;;;15.81;47.33;100940.03;4994533;28;1280;-52
2022/12/14 10:18:58;;;;;;;;;;;;;;;15.54;48.20;100935.41;4994555;28;1280;-52
2022/12/14 10:21:24;;;;;;;;;;;;;;;16.19;46.62;100941.63;4994844;28;1253;-53
2022/12/14 10:24:02;;;;;;;;;;;;;;;17.29;43.94;100941.66;4993489;28;2203;-54
2022/12/14 10:26:39;;;;;;;;;;;;;;;16.12;46.62;100937.44;4980768;28;1146;-55
2022/12/14 10:29:06;;;;;;;;;;;;;;;15.73;47.69;100944.88;4977712;28;1233;-55
2022/12/14 10:31:39;;;;;;;;;;;;;;;15.54;47.82;100940.91;4976843;28;1981;-53
2022/12/14 10:34:12;;;;;;;;;;;;;;;15.81;47.34;100940.88;4977322;28;1150;-50
2022/12/14 10:36:38;;;;;;;;;;;;;;;17.32;43.74;100946.63;4976986;28;1221;-52
2022/12/14 10:39:16;;;;;;;;;;;;;;;16.32;45.89;100925.78;4994711;28;1189;-55
2022/12/14 10:41:56;;;;;;;;;;;;;;;15.77;47.33;100928.75;4976895;28;1182;-54
2022/12/14 10:44:41;;;;;;;;;;;;;;;15.55;48.06;100912.41;4994431;28;1287;-53
2022/12/14 10:47:11;;;;;;;;;;;;;;;17.13;44.36;100909.78;4994431;28;1158;-56
2022/12/14 10:49:37;;;;;;;;;;;;;;;16.49;45.40;100896.19;4958971;28;1209;-54
2022/12/14 10:52:04;;;;;;;;;;;;;;;15.92;47.07;100895.13;4988953;28;1969;-54
2022/12/14 10:54:36;;;;;;;;;;;;;;;15.65;47.46;100889.72;4977031;28;1877;-53
2022/12/14 10:57:01;;;;;;;;;;;;;;;15.43;48.06;100896.19;4994664;28;1109;-54
2022/12/14 10:59:31;;;;;;;;;;;;;;;16.86;44.87;100895.16;4994781;28;1129;-54
2022/12/14 11:02:07;;;;;;;;;;;;;;;16.43;45.64;100898.09;4995100;28;1101;-54
2022/12/14 11:04:32;;;;;;;;;;;;;;;15.84;47.12;100895.63;4978129;28;1193;-54
2022/12/14 11:06:58;;;;;;;;;;;;;;;15.56;47.80;100900.38;4998344;28;1109;-53
2022/12/14 11:09:24;;;;;;;;;;;;;;;15.41;47.98;100901.06;4998111;28;1168;-54
2022/12/14 11:11:56;;;;;;;;;;;;;;;17.00;44.20;100897.41;4997713;28;1973;-55
2022/12/14 11:14:22;;;;;;;;;;;;;;;16.39;45.42;100901.63;4998323;28;1112;-55
2022/12/14 11:16:47;;;;;;;;;;;;;;;15.82;46.74;100884.94;4981097;28;1038;-54
2022/12/14 11:19:16;;;;;;;;;;;;;;;15.55;47.55;100885.00;4998225;28;1163;-53
2022/12/14 11:21:42;;;;;;;;;;;;;;;16.42;45.60;100884.63;4997503;28;938;-54
2022/12/14 11:24:08;;;;;;;;;;;;;;;16.73;44.45;100880.06;4993043;28;2212;-51
2022/12/14 11:26:34;;;;;;;;;;;;;;;15.90;46.46;100872.63;4979926;28;1177;-57
2022/12/14 11:29:00;;;;;;;;;;;;;;;15.63;47.28;100876.28;4998290;28;1093;-58
2022/12/14 11:31:27;;;;;;;;;;;;;;;16.00;46.34;100874.59;4980177;28;1898;-58
2022/12/14 11:33:53;;;;;;;;;;;;;;;17.04;43.88;100874.63;4996511;28;1197;-58
2022/12/14 11:36:22;;;;;;;;;;;;;;;16.03;46.15;100877.63;4997486;28;1131;-54
2022/12/14 11:39:00;;;;;;;;;;;;;;;15.67;47.22;100880.16;4987567;28;976;-54
2022/12/14 11:41:31;;;;;;;;;;;;;;;15.44;47.60;100886.03;4996918;28;1390;-55
2022/12/14 11:44:01;;;;;;;;;;;;;;;16.98;43.92;100886.69;4975637;28;1205;-56
2022/12/14 11:46:46;;;;;;;;;;;;;;;16.36;45.18;100885.72;4970804;28;1153;-57
2022/12/14 11:49:22;;;;;;;;;;;;;;;15.77;46.59;100876.66;4974508;28;1160;-55
2022/12/14 11:52:03;;;;;;;;;;;;;;;15.49;47.53;100875.94;4986302;28;1915;-59
2022/12/14 11:54:29;;;;;;;;;;;;;;;16.87;44.44;100882.25;4986606;28;2183;-53
2022/12/14 11:57:05;;;;;;;;;;;;;;;17.00;43.47;100879.00;4996953;28;1172;-55
2022/12/14 11:59:36;;;;;;;;;;;;;;;16.06;45.98;100877.09;4988655;28;1125;-55
2022/12/14 12:02:13;;;;;;;;;;;;;;;15.72;46.88;100866.50;4979507;28;1082;-56
2022/12/14 12:04:41;;;;;;;;;;;;;;;15.49;47.57;100862.22;4996945;28;1190;-55
2022/12/14 12:07:13;;;;;;;;;;;;;;;15.48;47.56;100865.22;4994534;28;1081;-57
2022/12/14 12:09:39;;;;;;;;;;;;;;;17.10;43.55;100859.78;4969728;28;1181;-58
2022/12/14 12:12:04;;;;;;;;;;;;;;;16.46;44.87;100858.28;4995067;28;1964;-57
2022/12/14 12:14:36;;;;;;;;;;;;;;;15.85;46.59;100869.84;4967458;28;1143;-54
2022/12/14 12:17:02;;;;;;;;;;;;;;;15.57;47.38;100871.84;4978760;28;1153;-56
2022/12/14 12:19:29;;;;;;;;;;;;;;;15.60;47.07;100863.13;4979296;28;1260;-56
2022/12/14 12:21:55;;;;;;;;;;;;;;;17.16;43.40;100846.84;4997351;28;1164;-53
2022/12/14 12:24:31;;;;;;;;;;;;;;;16.21;45.59;100848.06;4979380;28;2517;-55
2022/12/14 12:27:01;;;;;;;;;;;;;;;15.72;46.71;100830.84;4975840;28;1416;-56
2022/12/14 12:29:28;;;;;;;;;;;;;;;15.50;47.31;100830.16;4977122;28;1162;-55
2022/12/14 12:32:26;;;;;;;;;;;;;;;15.60;47.07;100841.19;4968173;28;1981;-55
2022/12/14 12:34:53;;;;;;;;;;;;;;;17.26;43.01;100846.88;4955160;28;1230;-56
2022/12/14 12:37:38;;;;;;;;;;;;;;;16.16;45.54;100848.88;4979241;28;1147;-58
2022/12/14 12:40:13;;;;;;;;;;;;;;;15.70;46.49;100857.69;4995926;28;1179;-57
2022/12/14 12:42:47;;;;;;;;;;;;;;;15.42;47.52;100855.31;4979158;28;1168;-57
2022/12/14 12:45:18;;;;;;;;;;;;;;;16.42;45.32;100858.03;4982493;28;1202;-58
2022/12/14 12:47:52;;;;;;;;;;;;;;;16.64;44.38;100850.66;4996097;28;1191;-56
2022/12/14 12:50:21;;;;;;;;;;;;;;;15.87;46.19;100853.97;4997073;28;1152;-56
2022/12/14 12:52:50;;;;;;;;;;;;;;;15.54;47.02;100848.56;4978731;28;1910;-54
2022/12/14 12:55:16;;;;;;;;;;;;;;;15.33;47.58;100861.31;4995545;28;2313;-53
2022/12/14 12:57:45;;;;;;;;;;;;;;;16.71;44.32;100854.78;4979075;28;1125;-53
2022/12/14 13:00:17;;;;;;;;;;;;;;;16.89;43.95;100849.88;4978209;28;1344;-56
2022/12/14 13:02:50;;;;;;;;;;;;;;;15.94;46.25;100851.81;4978634;28;1172;-56
2022/12/14 13:05:17;;;;;;;;;;;;;;;15.64;46.97;100853.28;4978107;28;1121;-55
2022/12/14 13:07:43;;;;;;;;;;;;;;;15.40;47.67;100844.63;4978831;28;1210;-54